Time;durP1;ratioP1;P1;durP2;ratioP2;P2;SDS_P1;SDS_P2;PMS_P1;PMS_P2;Temp;Humidity;BMP_temperature;BMP_pressure;BME280_temperature;BME280_humidity;BME280_pressure;Samples;Min_cycle;Max_cycle;Signal;HPM_P1;HPM_P2
2022/04/21 00:01:23;;;;;;;4.80;2.70;;;14.50;67.90;;;;;;5069061;28;20017;-74
2022/04/21 00:03:48;;;;;;;4.75;2.60;;;14.50;67.90;;;;;;5066474;28;20059;-76
2022/04/21 00:06:14;;;;;;;4.97;2.55;;;14.50;67.90;;;;;;5071976;28;20434;-71
2022/04/21 00:08:41;;;;;;;5.25;2.40;;;14.50;68.00;;;;;;5069888;28;20036;-74
2022/04/21 00:11:06;;;;;;;4.53;2.40;;;14.50;68.10;;;;;;5072151;28;20060;-75
2022/04/21 00:13:33;;;;;;;6.85;3.22;;;14.50;68.00;;;;;;5070750;28;20411;-73
2022/04/21 00:15:59;;;;;;;4.30;2.35;;;14.50;68.10;;;;;;5070970;28;20497;-75
2022/04/21 00:18:25;;;;;;;5.07;2.67;;;14.60;68.30;;;;;;5072001;28;20085;-74
2022/04/21 00:20:50;;;;;;;4.38;2.50;;;14.60;68.30;;;;;;5072031;28;20021;-74
2022/04/21 00:23:29;;;;;;;5.82;2.65;;;14.50;68.10;;;;;;5070597;28;20084;-75
2022/04/21 00:25:58;;;;;;;4.40;2.40;;;14.70;68.70;;;;;;5069253;28;20013;-74
2022/04/21 00:28:24;;;;;;;4.03;2.38;;;14.50;68.20;;;;;;5070705;28;20047;-75
2022/04/21 00:30:50;;;;;;;5.63;2.47;;;14.60;68.70;;;;;;5067994;28;20090;-75
2022/04/21 00:33:16;;;;;;;4.18;2.25;;;14.50;68.60;;;;;;5069989;28;20391;-75
2022/04/21 00:35:41;;;;;;;4.13;2.33;;;14.50;68.70;;;;;;5070448;28;20069;-75
2022/04/21 00:38:07;;;;;;;4.40;2.50;;;14.50;68.70;;;;;;5070183;28;20111;-75
2022/04/21 00:40:32;;;;;;;4.63;2.30;;;14.50;69.00;;;;;;5069895;28;20013;-74
2022/04/21 00:42:58;;;;;;;4.03;2.10;;;14.50;68.90;;;;;;5069292;28;20028;-74
2022/04/21 00:45:24;;;;;;;4.72;2.40;;;14.60;68.90;;;;;;5066087;28;20120;-72
2022/04/21 00:47:52;;;;;;;4.47;2.60;;;14.50;69.00;;;;;;5065479;28;20518;-73
2022/04/21 00:50:18;;;;;;;5.00;2.28;;;14.50;68.90;;;;;;5069527;28;20025;-75
2022/04/21 00:52:45;;;;;;;5.18;2.55;;;14.60;69.00;;;;;;5071094;28;20068;-75
2022/04/21 00:55:11;;;;;;;4.50;2.05;;;14.60;69.00;;;;;;5068856;28;20040;-75
2022/04/21 00:57:38;;;;;;;3.80;2.10;;;14.60;68.90;;;;;;5069913;28;20028;-75
2022/04/21 01:00:05;;;;;;;4.13;2.50;;;14.70;68.80;;;;;;5066063;28;20024;-74
2022/04/21 01:02:49;;;;;;;3.58;2.10;;;14.70;68.70;;;;;;5067098;28;20084;-73
2022/04/21 01:05:17;;;;;;;5.15;2.60;;;14.70;68.60;;;;;;5071466;28;20016;-75
2022/04/21 01:07:43;;;;;;;4.28;2.30;;;14.70;68.50;;;;;;5071632;28;20021;-72
2022/04/21 01:10:10;;;;;;;6.05;2.47;;;14.80;68.50;;;;;;5065718;28;20104;-75
2022/04/21 01:12:36;;;;;;;4.55;2.40;;;14.80;68.40;;;;;;5068509;28;20617;-75
2022/04/21 01:15:01;;;;;;;4.05;2.20;;;14.80;68.30;;;;;;5070450;28;20056;-75
2022/04/21 01:17:36;;;;;;;4.93;2.75;;;14.80;68.20;;;;;;5065846;28;20035;-74
2022/04/21 01:20:06;;;;;;;3.88;2.25;;;14.80;68.10;;;;;;5070769;28;20126;-74
2022/04/21 01:22:32;;;;;;;4.25;2.15;;;14.80;68.10;;;;;;5070863;28;20074;-74
2022/04/21 01:24:58;;;;;;;4.28;2.20;;;14.70;68.00;;;;;;5071076;28;20025;-78
2022/04/21 01:27:27;;;;;;;4.53;2.35;;;14.80;68.00;;;;;;5070069;28;20411;-75
2022/04/21 01:29:53;;;;;;;4.22;2.33;;;14.70;67.90;;;;;;5070269;28;20025;-71
2022/04/21 01:32:19;;;;;;;4.07;2.22;;;14.70;67.90;;;;;;5070720;28;20556;-73
2022/04/21 01:34:44;;;;;;;5.05;2.40;;;14.70;68.10;;;;;;5069831;28;20730;-73
2022/04/21 01:42:38;;;;;;;4.07;2.40;;;14.60;68.40;;;;;;5070746;28;20171;-73
2022/04/21 01:45:04;;;;;;;4.43;2.35;;;14.60;68.30;;;;;;5070649;28;20053;-75
2022/04/21 01:47:29;;;;;;;3.90;2.30;;;14.60;68.30;;;;;;5062157;28;20033;-75
2022/04/21 01:49:55;;;;;;;4.82;2.35;;;14.50;68.30;;;;;;5065779;28;20111;-72
2022/04/21 01:52:20;;;;;;;4.70;2.53;;;14.50;68.10;;;;;;5068098;28;20107;-73
2022/04/21 01:54:50;;;;;;;4.60;2.50;;;14.50;68.20;;;;;;5058257;28;20041;-72
2022/04/21 01:57:16;;;;;;;4.43;2.42;;;14.50;67.90;;;;;;5073327;28;20094;-73
2022/04/21 01:59:41;;;;;;;4.22;2.40;;;14.50;67.90;;;;;;5073851;28;20483;-75
2022/04/21 02:02:07;;;;;;;3.88;2.05;;;14.50;67.90;;;;;;5072668;28;20024;-74
2022/04/21 02:04:32;;;;;;;4.57;2.40;;;14.50;68.10;;;;;;5073040;28;20475;-74
2022/04/21 02:06:58;;;;;;;5.35;2.22;;;14.50;67.70;;;;;;5073826;28;20031;-75
2022/04/21 02:09:23;;;;;;;4.13;2.40;;;14.50;67.70;;;;;;5073763;28;20031;-75
2022/04/21 02:11:49;;;;;;;4.10;2.50;;;14.50;67.90;;;;;;5068156;28;20040;-75
2022/04/21 02:14:14;;;;;;;4.97;2.80;;;14.50;67.80;;;;;;5074104;28;20029;-75
2022/04/21 02:16:40;;;;;;;4.93;2.38;;;14.50;67.70;;;;;;5072856;28;20449;-75
2022/04/21 02:19:05;;;;;;;4.28;2.40;;;14.40;67.60;;;;;;5073135;28;20020;-75
2022/04/21 02:21:31;;;;;;;5.78;2.47;;;14.50;68.10;;;;;;5074250;28;20065;-75
2022/04/21 02:23:56;;;;;;;4.70;2.47;;;14.50;67.70;;;;;;5074277;28;20039;-75
2022/04/21 02:26:21;;;;;;;4.35;2.25;;;14.50;67.70;;;;;;5060151;28;20021;-76
2022/04/21 02:28:47;;;;;;;4.53;2.60;;;14.50;67.80;;;;;;5070811;28;20017;-75
2022/04/21 02:31:12;;;;;;;4.10;2.05;;;14.40;67.60;;;;;;5071943;28;20032;-70
2022/04/21 02:33:38;;;;;;;4.22;2.30;;;14.50;67.70;;;;;;5070213;28;20094;-71
2022/04/21 02:36:03;;;;;;;4.55;2.50;;;14.40;67.60;;;;;;5073862;28;20036;-75
2022/04/21 02:38:29;;;;;;;4.82;2.60;;;14.40;67.50;;;;;;5068996;28;20453;-73
2022/04/21 02:40:54;;;;;;;3.88;2.25;;;14.40;67.50;;;;;;5073868;28;20025;-75
2022/04/21 02:43:20;;;;;;;4.03;2.40;;;14.40;67.60;;;;;;5073450;28;20021;-72
2022/04/21 02:45:46;;;;;;;3.60;2.30;;;14.40;67.50;;;;;;5062916;28;20028;-75
2022/04/21 02:48:11;;;;;;;3.45;2.20;;;14.40;67.60;;;;;;5072640;28;20024;-75
2022/04/21 02:50:37;;;;;;;4.65;2.30;;;14.40;67.60;;;;;;5056871;28;20036;-76
2022/04/21 02:53:03;;;;;;;4.03;2.08;;;14.40;67.60;;;;;;5072943;28;20086;-75
2022/04/21 02:58:14;;;;;;;5.32;2.60;;;14.40;67.80;;;;;;5076975;28;20023;-75
2022/04/21 03:00:39;;;;;;;4.47;2.58;;;14.40;67.60;;;;;;5073386;28;20207;-76
2022/04/21 03:03:05;;;;;;;4.97;2.40;;;14.40;67.70;;;;;;5065529;28;20045;-71
2022/04/21 03:05:30;;;;;;;3.25;2.00;;;14.40;67.70;;;;;;5073044;28;20025;-75
2022/04/21 03:07:56;;;;;;;4.38;2.28;;;14.50;67.80;;;;;;5073311;28;20029;-75
2022/04/21 03:10:22;;;;;;;3.63;2.25;;;14.40;68.00;;;;;;5067637;28;20108;-71
2022/04/21 03:12:47;;;;;;;4.78;2.60;;;14.40;68.20;;;;;;5076393;28;20024;-75
2022/04/21 03:15:13;;;;;;;4.40;2.15;;;14.40;68.10;;;;;;5070892;28;20028;-71
2022/04/21 03:17:40;;;;;;;5.20;2.67;;;14.40;68.00;;;;;;5067359;28;20040;-75
2022/04/21 03:20:06;;;;;;;3.97;2.40;;;14.40;68.20;;;;;;5057551;28;20017;-72
2022/04/21 03:25:16;;;;;;;4.55;2.35;;;14.40;68.00;;;;;;5070708;28;20039;-75
2022/04/21 03:27:46;;;;;;;4.22;2.45;;;14.40;69.00;;;;;;5063245;28;20029;-72
2022/04/21 03:30:12;;;;;;;5.88;2.65;;;14.40;68.90;;;;;;5070789;28;20447;-73
2022/04/21 03:32:39;;;;;;;3.90;2.40;;;14.50;69.00;;;;;;5063107;28;20072;-72
2022/04/21 03:35:05;;;;;;;4.55;2.50;;;14.50;69.10;;;;;;5071452;28;20035;-75
2022/04/21 03:37:30;;;;;;;4.47;2.55;;;14.50;68.90;;;;;;5062749;28;20021;-76
2022/04/21 03:39:56;;;;;;;4.30;2.53;;;14.50;68.70;;;;;;5072669;28;20078;-75
2022/04/21 03:42:27;;;;;;;4.35;2.67;;;14.60;68.60;;;;;;5072555;28;20031;-75
2022/04/21 03:44:53;;;;;;;5.45;2.42;;;14.60;68.50;;;;;;5072952;28;20044;-74
2022/04/21 03:47:20;;;;;;;5.35;2.72;;;14.60;68.40;;;;;;5067379;28;20037;-75
2022/04/21 03:49:46;;;;;;;4.40;2.55;;;14.60;68.30;;;;;;5066664;28;20029;-76
2022/04/21 03:52:12;;;;;;;5.40;2.65;;;14.60;68.20;;;;;;5064317;28;20028;-76
2022/04/21 03:54:39;;;;;;;4.55;2.50;;;14.60;68.10;;;;;;5079306;28;20548;-74
2022/04/21 03:57:05;;;;;;;5.68;3.00;;;14.60;68.60;;;;;;5077311;28;20075;-71
2022/04/21 03:59:31;;;;;;;5.30;2.72;;;14.60;68.00;;;;;;5062954;28;20031;-74
2022/04/21 04:02:03;;;;;;;4.82;2.53;;;14.60;67.90;;;;;;5069633;28;20025;-75
2022/04/21 04:04:30;;;;;;;4.28;2.50;;;14.60;67.80;;;;;;5071109;28;20032;-74
2022/04/21 04:12:32;;;;;;;5.20;2.60;;;14.50;67.80;;;;;;5055085;28;20484;-75
2022/04/21 04:14:59;;;;;;;4.20;2.40;;;14.50;68.00;;;;;;5070499;28;20042;-75
2022/04/21 04:17:25;;;;;;;4.32;2.40;;;14.50;68.20;;;;;;5070391;28;20032;-73
2022/04/21 04:19:51;;;;;;;4.03;2.40;;;14.50;68.20;;;;;;5070495;28;20024;-71
2022/04/21 04:22:16;;;;;;;4.50;2.58;;;14.40;68.20;;;;;;5068805;28;20091;-75
2022/04/21 04:24:44;;;;;;;6.07;2.70;;;14.40;68.20;;;;;;5072281;28;20025;-75
2022/04/21 04:27:09;;;;;;;5.00;2.78;;;14.40;68.20;;;;;;5057966;28;20060;-75
2022/04/21 04:29:35;;;;;;;5.40;2.50;;;14.40;68.10;;;;;;5070251;28;20059;-75
2022/04/21 04:32:01;;;;;;;4.00;2.45;;;14.40;68.10;;;;;;5070500;28;20032;-75
2022/04/21 04:34:27;;;;;;;5.55;2.90;;;14.40;67.60;;;;;;5068059;28;20020;-75
2022/04/21 04:36:52;;;;;;;5.50;2.95;;;14.40;68.00;;;;;;5066979;28;20040;-74
2022/04/21 04:39:18;;;;;;;5.05;2.80;;;14.40;67.90;;;;;;5069999;28;20060;-71
2022/04/21 04:44:28;;;;;;;4.93;3.08;;;14.40;67.90;;;;;;5065699;28;20692;-73
2022/04/21 04:46:54;;;;;;;4.93;2.47;;;14.40;67.50;;;;;;5061999;28;20028;-77
2022/04/21 04:49:19;;;;;;;4.55;2.88;;;14.40;67.90;;;;;;5068278;28;20031;-74
2022/04/21 04:51:45;;;;;;;5.03;2.92;;;14.40;67.40;;;;;;5066173;28;20495;-76
2022/04/21 04:54:12;;;;;;;4.55;2.67;;;14.40;67.30;;;;;;5066193;28;20028;-77
2022/04/21 04:56:39;;;;;;;5.32;2.58;;;14.40;67.20;;;;;;5057990;28;20029;-74
2022/04/21 04:59:05;;;;;;;4.63;2.90;;;14.40;67.20;;;;;;5066601;28;20024;-74
2022/04/21 05:01:32;;;;;;;4.50;2.70;;;14.40;66.90;;;;;;5065957;28;20480;-75
2022/04/21 05:04:25;;;;;;;4.55;2.70;;;14.40;66.90;;;;;;5058744;28;20020;-76
2022/04/21 05:06:52;;;;;;;4.30;2.50;;;14.40;66.90;;;;;;5063200;28;20108;-75
2022/04/21 05:09:22;;;;;;;4.32;2.65;;;14.30;66.90;;;;;;5063510;28;20025;-75
2022/04/21 05:11:53;;;;;;;4.68;2.90;;;14.30;66.80;;;;;;5061541;28;20036;-76
2022/04/21 05:14:20;;;;;;;5.00;2.77;;;14.30;66.90;;;;;;5058280;28;20068;-76
2022/04/21 05:16:45;;;;;;;5.22;2.80;;;14.30;67.40;;;;;;5065805;28;20077;-73
2022/04/21 05:19:16;;;;;;;6.00;2.90;;;14.40;66.90;;;;;;5047305;28;20025;-74
2022/04/21 05:21:43;;;;;;;5.68;2.97;;;14.40;67.00;;;;;;5074004;28;20437;-75
2022/04/21 05:24:10;;;;;;;5.13;2.80;;;14.40;66.80;;;;;;5081363;28;20024;-76
2022/04/21 05:26:40;;;;;;;5.03;2.92;;;14.30;66.70;;;;;;5066977;28;20527;-78
2022/04/21 05:31:56;;;;;;;4.90;2.78;;;14.40;66.80;;;;;;5066798;28;20063;-75
2022/04/21 05:34:23;;;;;;;5.75;3.00;;;14.40;66.80;;;;;;5066730;28;20491;-78
2022/04/21 05:36:49;;;;;;;5.00;3.08;;;14.40;66.80;;;;;;5065450;28;20078;-76
2022/04/21 05:39:15;;;;;;;5.38;2.83;;;14.40;66.90;;;;;;5065262;28;20032;-75
2022/04/21 05:41:41;;;;;;;5.47;3.13;;;14.40;66.90;;;;;;5067732;28;20034;-75
2022/04/21 05:44:07;;;;;;;5.50;2.97;;;14.40;66.70;;;;;;5051804;28;20032;-75
2022/04/21 05:46:33;;;;;;;5.75;3.28;;;14.40;66.70;;;;;;5065648;28;20078;-74
2022/04/21 05:48:59;;;;;;;5.88;3.50;;;14.40;66.70;;;;;;5063724;28;20028;-75
2022/04/21 05:51:25;;;;;;;6.25;3.40;;;14.40;66.50;;;;;;5067698;28;20087;-76
2022/04/21 05:53:52;;;;;;;5.88;3.55;;;14.40;66.60;;;;;;5063584;28;20479;-75
2022/04/21 05:56:18;;;;;;;5.97;3.40;;;14.40;66.70;;;;;;5067092;28;20033;-78
2022/04/21 05:58:43;;;;;;;10.13;4.25;;;14.30;67.00;;;;;;5064524;28;20518;-76
2022/04/21 06:01:09;;;;;;;12.23;3.50;;;14.30;66.80;;;;;;5059248;28;20306;-74
2022/04/21 06:03:37;;;;;;;7.35;3.88;;;14.30;66.80;;;;;;5065657;28;20020;-75
2022/04/21 06:06:03;;;;;;;7.63;3.60;;;14.30;66.90;;;;;;5047536;28;20021;-76
2022/04/21 06:08:29;;;;;;;9.85;4.20;;;14.30;66.60;;;;;;5047861;28;20609;-77
2022/04/21 06:10:56;;;;;;;9.73;4.25;;;14.30;67.00;;;;;;5060064;28;20111;-76
2022/04/21 06:13:22;;;;;;;8.23;4.30;;;14.30;66.90;;;;;;5053871;28;20029;-76
2022/04/21 06:15:48;;;;;;;7.07;4.50;;;14.40;67.00;;;;;;5063147;28;20025;-75
2022/04/21 06:18:13;;;;;;;8.60;4.70;;;14.30;66.90;;;;;;5065424;28;20025;-76
2022/04/21 06:20:40;;;;;;;8.13;4.25;;;14.40;66.70;;;;;;5064965;28;20124;-75
2022/04/21 06:23:06;;;;;;;6.90;4.43;;;14.40;66.40;;;;;;5067398;28;20013;-78
2022/04/21 06:25:31;;;;;;;8.13;4.45;;;14.50;66.00;;;;;;5066067;28;20542;-75
2022/04/21 06:27:57;;;;;;;6.80;4.22;;;14.50;65.60;;;;;;5065835;28;20028;-75
2022/04/21 06:30:23;;;;;;;7.10;4.38;;;14.50;65.40;;;;;;5066087;28;20040;-75
2022/04/21 06:32:49;;;;;;;8.80;4.90;;;14.50;65.20;;;;;;5066076;28;20029;-76
2022/04/21 06:35:15;;;;;;;7.75;4.97;;;14.50;65.30;;;;;;5067086;28;20028;-75
2022/04/21 06:37:42;;;;;;;6.95;4.53;;;14.50;65.10;;;;;;5067162;28;20024;-76
2022/04/21 06:40:08;;;;;;;9.02;5.22;;;14.60;65.10;;;;;;5065839;28;20024;-74
2022/04/21 06:42:35;;;;;;;6.50;4.40;;;14.60;65.00;;;;;;5070916;28;20376;-74
2022/04/21 06:48:07;;;;;;;8.35;4.63;;;14.60;64.80;;;;;;5062732;28;20089;-75
2022/04/21 06:50:38;;;;;;;7.25;4.20;;;14.60;64.70;;;;;;5070770;28;20021;-75
2022/04/21 06:53:06;;;;;;;7.43;4.47;;;14.60;65.00;;;;;;5070519;28;20398;-75
2022/04/21 06:55:31;;;;;;;7.25;4.53;;;14.60;65.00;;;;;;5070627;28;20107;-74
2022/04/21 06:57:57;;;;;;;7.07;4.60;;;14.60;65.20;;;;;;5070573;28;20128;-77
2022/04/21 07:00:26;;;;;;;8.38;4.97;;;14.50;65.20;;;;;;5070668;28;20025;-73
2022/04/21 07:02:52;;;;;;;7.05;4.65;;;14.50;65.00;;;;;;5061420;28;20028;-78
2022/04/21 07:05:18;;;;;;;7.85;5.00;;;14.50;65.00;;;;;;5069752;28;20345;-76
2022/04/21 07:07:44;;;;;;;7.45;4.60;;;14.50;64.90;;;;;;5067944;28;20036;-76
2022/04/21 07:10:11;;;;;;;7.00;4.35;;;14.50;64.90;;;;;;5072076;28;20032;-75
2022/04/21 07:12:37;;;;;;;6.78;4.47;;;14.50;64.90;;;;;;5058927;28;20093;-74
2022/04/21 07:15:08;;;;;;;7.55;4.75;;;14.50;64.80;;;;;;5053061;28;20052;-75
2022/04/21 07:17:36;;;;;;;7.50;4.05;;;14.50;64.70;;;;;;5060235;28;20488;-75
2022/04/21 07:20:03;;;;;;;8.07;5.20;;;14.50;65.10;;;;;;5061801;28;20047;-74
2022/04/21 07:22:29;;;;;;;7.88;4.72;;;14.60;65.10;;;;;;5051369;28;20021;-79
2022/04/21 07:24:55;;;;;;;7.78;4.40;;;14.60;65.20;;;;;;5055021;28;20047;-79
2022/04/21 07:27:22;;;;;;;8.10;4.40;;;14.60;65.40;;;;;;5068511;28;20025;-78
2022/04/21 07:29:48;;;;;;;7.97;4.60;;;14.60;65.60;;;;;;5065758;28;20609;-74
2022/04/21 07:32:13;;;;;;;10.30;4.82;;;14.60;65.60;;;;;;5062333;28;20024;-78
2022/04/21 07:34:39;;;;;;;8.10;4.65;;;14.60;65.60;;;;;;5059177;28;20065;-74
2022/04/21 07:37:05;;;;;;;9.75;4.57;;;14.60;65.60;;;;;;5066290;28;20124;-74
2022/04/21 07:39:32;;;;;;;7.93;4.28;;;14.60;65.60;;;;;;5061288;28;20025;-74
2022/04/21 07:41:58;;;;;;;7.75;4.47;;;14.60;65.80;;;;;;5061419;28;20036;-78
2022/04/21 07:44:25;;;;;;;7.13;4.25;;;14.60;65.50;;;;;;5056770;28;20036;-75
2022/04/21 07:46:51;;;;;;;6.88;4.30;;;14.50;65.40;;;;;;5069001;28;20012;-74
2022/04/21 07:54:44;;;;;;;7.70;4.63;;;14.50;65.60;;;;;;5066413;28;20144;-75
2022/04/21 07:57:11;;;;;;;7.43;4.30;;;14.40;65.70;;;;;;5066951;28;20032;-75
2022/04/21 07:59:37;;;;;;;8.07;4.53;;;14.50;66.20;;;;;;5049441;28;20087;-74
2022/04/21 08:02:04;;;;;;;8.55;4.53;;;14.50;66.40;;;;;;5060560;28;20028;-77
2022/04/21 08:04:32;;;;;;;7.63;4.30;;;14.40;65.90;;;;;;5057517;28;20021;-74
2022/04/21 08:06:58;;;;;;;7.43;4.15;;;14.40;66.40;;;;;;5058093;28;20025;-74
2022/04/21 08:09:24;;;;;;;11.50;4.50;;;14.40;66.40;;;;;;5068731;28;20384;-75
2022/04/21 08:11:49;;;;;;;7.03;4.30;;;14.40;66.40;;;;;;5068682;28;21735;-75
2022/04/21 08:14:16;;;;;;;8.50;4.63;;;14.40;65.90;;;;;;5063523;28;20017;-75
2022/04/21 08:16:42;;;;;;;11.20;4.85;;;14.40;66.20;;;;;;5046877;28;20044;-75
2022/04/21 08:19:08;;;;;;;9.60;4.57;;;14.40;66.40;;;;;;5063533;28;20163;-75
2022/04/21 08:21:34;;;;;;;7.10;4.50;;;14.40;66.40;;;;;;5067377;28;20124;-75
2022/04/21 08:32:33;;;;;;;7.80;4.07;;;14.30;65.90;;;;;;5060289;28;20017;-74
2022/04/21 08:34:58;;;;;;;8.65;4.20;;;14.30;66.30;;;;;;5066214;28;20085;-76
2022/04/21 08:37:23;;;;;;;8.63;4.32;;;14.40;66.40;;;;;;5062945;28;20446;-75
2022/04/21 08:39:49;;;;;;;7.32;4.25;;;14.40;66.00;;;;;;5068951;28;20449;-75
2022/04/21 08:42:15;;;;;;;8.30;4.85;;;14.40;65.80;;;;;;5067537;28;20432;-79
2022/04/21 08:44:44;;;;;;;6.80;4.20;;;14.50;65.80;;;;;;5067300;28;20024;-75
2022/04/21 08:47:11;;;;;;;7.97;4.22;;;14.50;65.80;;;;;;5068368;28;20041;-75
2022/04/21 08:49:39;;;;;;;8.82;4.93;;;14.50;65.80;;;;;;5067334;28;20028;-76
2022/04/21 08:52:05;;;;;;;10.77;4.70;;;14.50;65.80;;;;;;5065479;28;20564;-76
2022/04/21 08:54:31;;;;;;;7.20;4.40;;;14.50;65.60;;;;;;5065061;28;20522;-74
2022/04/21 08:56:57;;;;;;;10.00;4.57;;;14.50;65.60;;;;;;5065602;28;20024;-73
2022/04/21 08:59:23;;;;;;;10.10;4.50;;;14.50;65.30;;;;;;5067193;28;20028;-77
2022/04/21 09:01:49;;;;;;;9.13;4.50;;;14.60;65.40;;;;;;5059505;28;20061;-75
2022/04/21 09:04:15;;;;;;;8.70;4.57;;;14.60;65.40;;;;;;5047937;28;20032;-79
2022/04/21 09:06:40;;;;;;;9.05;4.75;;;14.70;65.60;;;;;;5063045;28;20032;-75
2022/04/21 09:09:14;;;;;;;8.70;4.22;;;14.70;65.50;;;;;;5065073;28;20135;-75
2022/04/21 09:11:42;;;;;;;9.63;4.28;;;14.70;65.50;;;;;;5068475;28;20024;-74
2022/04/21 09:14:15;;;;;;;10.50;4.65;;;14.70;65.50;;;;;;5068603;28;20029;-75
2022/04/21 09:16:40;;;;;;;12.95;4.30;;;14.70;65.00;;;;;;5067812;28;20055;-76
2022/04/21 09:19:06;;;;;;;8.90;5.05;;;14.70;65.00;;;;;;5067015;28;20484;-78
2022/04/21 09:21:39;;;;;;;7.80;4.07;;;14.70;65.20;;;;;;5067045;28;20036;-75
2022/04/21 09:24:24;;;;;;;7.70;4.45;;;14.70;65.20;;;;;;5067264;28;20118;-76
2022/04/21 09:26:51;;;;;;;9.15;4.57;;;14.80;65.20;;;;;;5067766;28;20499;-78
2022/04/21 09:29:30;;;;;;;7.43;4.15;;;14.80;65.20;;;;;;5067075;28;20032;-75
2022/04/21 09:32:00;;;;;;;7.90;4.68;;;14.80;65.20;;;;;;5068300;28;20066;-75
2022/04/21 09:34:25;;;;;;;8.05;4.28;;;14.80;65.10;;;;;;5068296;28;20036;-75
2022/04/21 09:36:55;;;;;;;8.05;4.72;;;14.70;65.10;;;;;;5067795;28;20024;-76
2022/04/21 09:39:22;;;;;;;7.90;4.25;;;14.70;65.10;;;;;;5063642;28;20017;-76
2022/04/21 09:41:52;;;;;;;9.85;5.00;;;14.70;65.20;;;;;;5062030;28;20472;-75
2022/04/21 09:47:01;;;;;;;9.23;4.47;;;14.60;65.10;;;;;;5055844;28;20104;-75
2022/04/21 09:49:35;;;;;;;7.18;4.50;;;14.60;65.40;;;;;;5067602;28;20104;-77
2022/04/21 09:52:01;;;;;;;8.70;4.78;;;14.60;65.40;;;;;;5065823;28;20399;-75
2022/04/21 09:54:29;;;;;;;10.15;5.15;;;14.50;65.20;;;;;;5062452;28;20025;-76
2022/04/21 09:56:56;;;;;;;8.82;4.85;;;14.50;65.50;;;;;;5067264;28;20028;-75
2022/04/21 09:59:23;;;;;;;8.40;4.93;;;14.60;65.60;;;;;;5070989;28;20016;-74
2022/04/21 10:01:50;;;;;;;8.45;4.78;;;14.60;65.40;;;;;;5070532;28;20048;-76
2022/04/21 10:04:19;;;;;;;7.57;4.90;;;14.60;65.30;;;;;;5071351;28;20103;-75
2022/04/21 10:06:45;;;;;;;8.48;4.50;;;14.60;65.40;;;;;;5069885;28;20021;-75
2022/04/21 10:09:12;;;;;;;8.27;4.70;;;14.70;65.50;;;;;;5070270;28;20024;-77
2022/04/21 10:11:41;;;;;;;8.73;5.43;;;14.70;65.70;;;;;;5066226;28;20032;-75
2022/04/21 10:14:07;;;;;;;9.07;4.63;;;14.80;65.40;;;;;;5068149;28;20055;-75
2022/04/21 10:16:33;;;;;;;8.98;4.80;;;14.90;65.00;;;;;;5053495;28;20061;-75
2022/04/21 10:19:00;;;;;;;7.68;4.72;;;15.00;64.80;;;;;;5062410;28;20557;-74
2022/04/21 10:21:52;;;;;;;8.13;4.43;;;15.00;64.90;;;;;;5073963;28;20025;-75
2022/04/21 10:24:26;;;;;;;7.07;4.75;;;15.00;64.70;;;;;;5065876;28;20431;-75
2022/04/21 10:26:52;;;;;;;8.35;4.38;;;15.00;64.80;;;;;;5074983;28;20024;-75
2022/04/21 10:29:23;;;;;;;7.43;4.55;;;15.00;64.70;;;;;;5074414;28;20046;-77
2022/04/21 10:31:57;;;;;;;7.72;4.47;;;15.00;64.80;;;;;;5053793;28;20028;-76
2022/04/21 10:34:37;;;;;;;7.70;4.25;;;15.00;65.10;;;;;;5055433;28;20017;-75
2022/04/21 10:37:10;;;;;;;8.45;4.75;;;15.00;65.20;;;;;;5059739;28;20023;-76
2022/04/21 10:39:36;;;;;;;7.75;4.60;;;15.10;65.10;;;;;;5074997;28;20025;-73
2022/04/21 10:42:14;;;;;;;9.00;5.05;;;15.10;65.00;;;;;;5070757;28;20028;-76
2022/04/21 10:44:48;;;;;;;8.65;4.97;;;15.10;64.90;;;;;;5069365;28;20403;-75
2022/04/21 10:47:33;;;;;;;8.15;5.20;;;15.10;65.00;;;;;;5070889;28;20025;-76
2022/04/21 10:50:01;;;;;;;7.60;4.32;;;15.20;65.20;;;;;;5073497;28;20024;-75
2022/04/21 10:57:46;;;;;;;8.35;4.75;;;15.20;65.30;;;;;;5067908;28;20067;-76
2022/04/21 11:00:25;;;;;;;8.38;5.00;;;15.20;65.40;;;;;;5073890;28;20040;-75
2022/04/21 11:03:08;;;;;;;7.25;4.60;;;15.20;65.40;;;;;;5073146;28;20075;-75
2022/04/21 11:05:36;;;;;;;10.50;5.55;;;15.20;65.20;;;;;;5072471;28;20066;-76
2022/04/21 11:08:03;;;;;;;7.97;4.80;;;15.20;64.90;;;;;;5072994;28;20020;-75
2022/04/21 11:10:38;;;;;;;7.57;4.35;;;15.20;65.30;;;;;;5074149;28;20357;-73
2022/04/21 11:13:18;;;;;;;7.90;4.95;;;15.20;65.20;;;;;;5071072;28;20466;-76
2022/04/21 11:15:53;;;;;;;7.70;4.82;;;15.20;65.30;;;;;;5065438;28;20078;-76
2022/04/21 11:18:36;;;;;;;7.47;4.40;;;15.20;65.60;;;;;;5070290;28;20103;-75
2022/04/21 11:21:22;;;;;;;8.32;4.55;;;15.20;65.70;;;;;;5078208;28;20031;-75
2022/04/21 11:23:48;;;;;;;9.93;4.82;;;15.20;65.70;;;;;;5067129;28;20096;-75
2022/04/21 11:26:13;;;;;;;8.52;4.85;;;15.20;65.70;;;;;;5071097;28;20055;-75
2022/04/21 11:28:43;;;;;;;10.45;5.18;;;15.20;65.70;;;;;;5071727;28;20025;-76
2022/04/21 11:31:09;;;;;;;13.48;5.40;;;15.30;66.70;;;;;;5072080;28;20029;-76
2022/04/21 11:33:38;;;;;;;11.82;5.30;;;15.30;66.10;;;;;;5072914;28;20033;-76
2022/04/21 11:36:12;;;;;;;8.68;5.00;;;15.30;66.50;;;;;;5066660;28;20025;-76
2022/04/21 11:38:42;;;;;;;12.85;4.95;;;15.40;66.30;;;;;;5068877;28;20530;-76
2022/04/21 11:41:09;;;;;;;12.02;5.22;;;15.40;66.40;;;;;;5072989;28;20423;-76
2022/04/21 11:43:36;;;;;;;14.63;5.18;;;15.40;66.50;;;;;;5073664;28;20020;-78
2022/04/21 11:46:09;;;;;;;11.02;5.50;;;15.40;66.50;;;;;;5068945;28;20387;-76
2022/04/21 11:48:37;;;;;;;9.38;5.03;;;15.50;66.40;;;;;;5065241;28;21514;-76
2022/04/21 11:51:04;;;;;;;12.60;5.35;;;15.50;66.70;;;;;;5067366;28;20088;-76
2022/04/21 11:53:34;;;;;;;12.80;5.20;;;15.50;66.70;;;;;;5066500;28;20024;-76
2022/04/21 11:56:00;;;;;;;12.23;5.57;;;15.60;66.70;;;;;;5068183;28;20036;-77
2022/04/21 11:58:30;;;;;;;11.60;5.35;;;15.60;66.70;;;;;;5068680;28;20547;-75
2022/04/21 12:06:39;;;;;;;8.40;4.95;;;15.80;67.60;;;;;;5066302;28;20034;-76
2022/04/21 12:09:17;;;;;;;10.10;5.10;;;15.80;68.10;;;;;;5067371;28;20029;-75
2022/04/21 12:11:48;;;;;;;13.38;5.38;;;15.80;68.60;;;;;;5062878;28;20729;-75
2022/04/21 12:14:15;;;;;;;10.93;5.18;;;15.80;68.10;;;;;;5067978;28;20025;-76
2022/04/21 12:16:50;;;;;;;8.98;5.15;;;15.90;70.00;;;;;;5072540;28;20032;-76
2022/04/21 12:19:42;;;;;;;13.60;5.60;;;16.00;70.10;;;;;;5071527;28;20396;-77
2022/04/21 12:22:09;;;;;;;12.75;5.65;;;16.10;70.10;;;;;;5076696;28;20016;-76
2022/04/21 12:24:43;;;;;;;10.43;5.70;;;16.10;71.10;;;;;;5076227;28;20052;-76
2022/04/21 12:27:18;;;;;;;8.63;4.97;;;16.20;71.60;;;;;;5076860;28;20024;-76
2022/04/21 12:29:57;;;;;;;10.63;5.70;;;16.30;71.00;;;;;;5081836;28;20016;-74
2022/04/21 12:32:30;;;;;;;9.75;5.60;;;16.30;72.30;;;;;;5051748;28;20021;-77
2022/04/21 12:35:01;;;;;;;11.15;5.53;;;16.40;73.70;;;;;;5058320;28;20028;-76
2022/04/21 12:37:32;;;;;;;11.77;5.60;;;16.40;72.00;;;;;;5070682;28;20020;-77
2022/04/21 12:40:00;;;;;;;9.63;5.40;;;16.40;72.00;;;;;;5076006;28;20098;-76
2022/04/21 12:42:28;;;;;;;12.23;5.93;;;16.50;72.50;;;;;;5071153;28;20861;-76
2022/04/21 12:44:54;;;;;;;10.45;5.95;;;16.60;72.80;;;;;;5072758;28;20028;-76
2022/04/21 12:47:21;;;;;;;15.75;5.80;;;16.60;73.50;;;;;;5071620;28;20028;-75
2022/04/21 12:49:49;;;;;;;13.45;5.88;;;16.60;73.80;;;;;;5070522;28;20035;-77
2022/04/21 12:52:25;;;;;;;12.55;6.10;;;16.60;72.60;;;;;;5052559;28;20392;-74
2022/04/21 12:54:51;;;;;;;10.35;5.50;;;16.70;73.40;;;;;;5050893;28;20060;-77
2022/04/21 12:57:17;;;;;;;11.55;5.72;;;16.70;72.50;;;;;;5070909;28;20075;-75
2022/04/21 12:59:44;;;;;;;13.60;5.97;;;16.70;72.20;;;;;;5069946;28;20070;-76
2022/04/21 13:02:10;;;;;;;13.00;6.25;;;16.70;72.60;;;;;;5071927;28;20116;-75
2022/04/21 13:04:35;;;;;;;13.25;5.85;;;16.80;75.20;;;;;;5072385;28;20052;-75
2022/04/21 13:07:01;;;;;;;10.57;5.50;;;16.70;74.40;;;;;;5072038;28;20024;-75
2022/04/21 13:09:27;;;;;;;12.55;5.97;;;16.80;74.70;;;;;;5070080;28;20061;-74
2022/04/21 13:11:52;;;;;;;14.05;5.95;;;16.80;75.50;;;;;;5055234;28;20021;-77
2022/04/21 13:14:18;;;;;;;11.50;5.63;;;16.80;75.40;;;;;;5070922;28;20750;-77
2022/04/21 13:16:43;;;;;;;12.25;5.38;;;16.80;75.20;;;;;;5071781;28;20037;-76
2022/04/21 13:19:09;;;;;;;13.07;5.45;;;16.80;75.40;;;;;;5071865;28;20109;-75
2022/04/21 13:21:52;;;;;;;10.75;5.10;;;16.80;74.80;;;;;;5079117;28;20027;-77
2022/04/21 13:24:29;;;;;;;10.52;5.13;;;16.80;72.80;;;;;;5091218;28;20016;-74
2022/04/21 13:26:56;;;;;;;13.73;5.90;;;16.80;73.30;;;;;;5088032;28;20025;-77
2022/04/21 13:29:22;;;;;;;12.20;5.45;;;16.70;74.30;;;;;;5070677;28;20017;-76
2022/04/21 13:34:34;;;;;;;9.27;5.20;;;16.50;73.50;;;;;;5071885;28;20048;-77
2022/04/21 13:37:01;;;;;;;10.85;5.43;;;16.50;73.20;;;;;;5070039;28;20162;-76
2022/04/21 13:39:26;;;;;;;10.13;5.20;;;16.40;73.60;;;;;;5071034;28;20017;-75
2022/04/21 13:41:52;;;;;;;11.70;5.60;;;16.40;71.90;;;;;;5070311;28;20369;-75
2022/04/21 13:44:18;;;;;;;10.63;5.60;;;16.30;71.80;;;;;;5058780;28;20033;-76